createdAt,value
2023-03-28T00:01:50.834Z,18.4
2023-03-28T00:07:42.521Z,18.3
2023-03-28T00:13:03.419Z,18.3
2023-03-28T00:18:39.749Z,18.3
2023-03-28T00:24:30.518Z,18.3
2023-03-28T00:29:50.457Z,18.2
2023-03-28T00:35:26.839Z,18.2
2023-03-28T00:41:18.530Z,18.2
2023-03-28T00:47:11.883Z,18.1
2023-03-28T00:52:48.664Z,18.1
2023-03-28T00:58:39.647Z,18.1
2023-03-28T01:04:16.476Z,18
2023-03-28T01:09:52.767Z,18
2023-03-28T01:15:30.710Z,17.9
2023-03-28T01:20:52.336Z,17.9
2023-03-28T01:26:24.918Z,17.9
2023-03-28T01:31:14.472Z,17.9
2023-03-28T01:36:51.891Z,17.9
2023-03-28T01:42:27.986Z,17.9
2023-03-28T01:48:05.040Z,17.9
2023-03-28T01:53:40.654Z,17.8
2023-03-28T01:59:24.220Z,17.8
2023-03-28T02:05:15.503Z,17.8
2023-03-28T02:10:52.098Z,17.8
2023-03-28T02:16:43.456Z,17.8
2023-03-28T02:22:34.965Z,17.8
2023-03-28T02:28:11.453Z,17.7
2023-03-28T02:34:03.283Z,17.6
2023-03-28T02:39:54.881Z,17.8
2023-03-28T02:45:49.187Z,18
2023-03-28T02:51:34.666Z,18.2
2023-03-28T02:57:10.666Z,18.2
2023-03-28T03:03:02.350Z,18.3
2023-03-28T03:08:40.006Z,18.3
2023-03-28T03:14:16.413Z,18.3
2023-03-28T03:19:52.922Z,18.3
2023-03-28T03:25:30.916Z,18.4
2023-03-28T03:31:00.850Z,18.4
2023-03-28T03:36:40.338Z,18.4
2023-03-28T03:42:16.693Z,18.4
2023-03-28T03:47:38.163Z,18.5
2023-03-28T03:53:20.148Z,18.5
2023-03-28T03:58:40.987Z,18.6
2023-03-28T04:04:31.132Z,18.6
2023-03-28T04:10:06.742Z,18.6
2023-03-28T04:15:42.900Z,18.6
2023-03-28T04:21:30.896Z,18.6
2023-03-28T04:27:31.861Z,18.6
2023-03-28T04:49:04.838Z,18.8
2023-03-28T04:54:56.625Z,18.8
2023-03-28T05:00:48.557Z,18.8
2023-03-28T05:06:26.307Z,18.8
2023-03-28T05:12:18.025Z,18.8
2023-03-28T05:18:13.815Z,18.8
2023-03-28T05:24:09.044Z,18.8
2023-03-28T05:29:59.428Z,18.8
2023-03-28T05:35:51.648Z,18.8
2023-03-28T05:41:43.466Z,18.9
2023-03-28T05:47:34.017Z,18.9
2023-03-28T05:53:25.761Z,18.8
2023-03-28T05:59:06.010Z,18.8
2023-03-28T06:04:59.245Z,18.9
2023-03-28T06:11:04.332Z,18.9
2023-03-28T06:17:04.319Z,18.9
2023-03-28T06:23:12.992Z,18.9
2023-03-28T06:28:49.064Z,18.9
2023-03-28T06:34:42.103Z,18.9
2023-03-28T06:40:34.391Z,18.9
2023-03-28T06:46:26.187Z,18.9
2023-03-28T06:52:02.953Z,18.9
2023-03-28T06:57:38.781Z,18.9
2023-03-28T07:03:30.848Z,18.9
2023-03-28T07:09:25.603Z,18.9
2023-03-28T07:15:01.512Z,18.9
2023-03-28T07:21:03.782Z,18.5
2023-03-28T07:27:07.896Z,18
2023-03-28T07:33:37.087Z,17.8
2023-03-28T07:39:29.001Z,17.7
2023-03-28T07:44:49.246Z,17.6
2023-03-28T07:50:25.760Z,17.5
2023-03-28T07:56:27.665Z,17.5
2023-03-28T08:02:19.857Z,17.4
2023-03-28T08:08:26.336Z,17.4
2023-03-28T08:14:18.094Z,17.4
2023-03-28T08:20:22.120Z,17.4
2023-03-28T08:26:08.301Z,17.4
2023-03-28T08:31:59.714Z,17.4
2023-03-28T08:37:52.109Z,17.4
2023-03-28T08:43:46.327Z,17.3
2023-03-28T08:49:23.032Z,17.3
2023-03-28T08:55:16.815Z,17.3
2023-03-28T09:01:09.726Z,17.3
2023-03-28T09:07:20.587Z,19.5
2023-03-28T09:13:12.967Z,19.7
2023-03-28T09:18:48.987Z,19.6
2023-03-28T09:25:03.407Z,19.4
2023-03-28T09:30:56.152Z,19.3
2023-03-28T09:36:41.568Z,19.6
2023-03-28T09:42:37.582Z,19.7
2023-03-28T09:48:40.050Z,21.1
2023-03-28T09:54:26.652Z,21.7
2023-03-28T10:00:27.823Z,22.5
2023-03-28T10:06:20.313Z,22.2
2023-03-28T10:12:11.571Z,22.2
2023-03-28T10:18:03.011Z,23.6
2023-03-28T10:23:53.846Z,24.2
2023-03-28T10:29:44.523Z,25
2023-03-28T10:35:22.027Z,26.4
2023-03-28T10:41:15.378Z,28.4
2023-03-28T10:47:06.614Z,29.6
2023-03-28T10:52:58.153Z,29.6
2023-03-28T10:58:50.312Z,31.1
2023-03-28T11:04:42.649Z,30.9
2023-03-28T11:10:53.338Z,30.6
2023-03-28T11:17:00.929Z,32.1
2023-03-28T11:22:37.161Z,33.7
2023-03-28T11:28:54.038Z,33.6
2023-03-28T11:34:45.673Z,33.9
2023-03-28T11:40:39.261Z,35.2
2023-03-28T11:46:44.437Z,35.9
2023-03-28T11:52:36.803Z,36.6
2023-03-28T11:58:28.624Z,37.2
2023-03-28T12:04:29.887Z,38.1
2023-03-28T12:10:38.447Z,38.3
2023-03-28T12:16:42.125Z,38.4
2023-03-28T12:22:35.375Z,39.2
2023-03-28T12:28:26.842Z,39.8
2023-03-28T12:34:03.826Z,39.3
2023-03-28T12:39:55.369Z,39.6
2023-03-28T12:45:32.684Z,39.1
2023-03-28T12:51:24.853Z,39.9
2023-03-28T12:57:23.780Z,40.7
2023-03-28T13:03:10.381Z,40.4
2023-03-28T13:09:02.711Z,39.8
2023-03-28T13:14:54.602Z,40.8
2023-03-28T13:20:47.490Z,39.9
2023-03-28T13:26:09.433Z,40.1
2023-03-28T13:32:01.070Z,39.7
2023-03-28T13:37:56.087Z,39.2
2023-03-28T13:43:32.464Z,39.6
2023-03-28T13:49:19.277Z,39.8
2023-03-28T13:55:08.496Z,40.4
2023-03-28T14:01:00.188Z,40.3
2023-03-28T14:06:54.227Z,40.1
2023-03-28T14:12:45.609Z,40.1
2023-03-28T14:18:39.647Z,39.8
2023-03-28T14:24:40.109Z,39.7
2023-03-28T14:30:19.847Z,39.1
2023-03-28T14:36:21.566Z,38.9
2023-03-28T14:42:12.643Z,38.3
2023-03-28T14:48:04.346Z,37.8
2023-03-28T14:53:58.226Z,36.1
2023-03-28T14:59:49.922Z,33.8
2023-03-28T15:05:42.658Z,32
2023-03-28T15:11:20.529Z,30.9
2023-03-28T15:17:14.650Z,30.1
2023-03-28T15:23:06.096Z,29.3
2023-03-28T15:28:57.720Z,28.8
2023-03-28T15:34:36.906Z,28.4
2023-03-28T15:40:30.482Z,28
2023-03-28T15:46:21.303Z,27.7
2023-03-28T15:52:15.016Z,27.4
2023-03-28T15:58:23.505Z,27.3
2023-03-28T16:04:15.096Z,27.1
2023-03-28T16:10:10.532Z,26.9
2023-03-28T16:16:01.895Z,26.8
2023-03-28T16:21:38.730Z,26.6
2023-03-28T16:27:14.855Z,26.5
2023-03-28T16:32:52.111Z,26.4
2023-03-28T16:38:44.353Z,26.3
2023-03-28T16:44:35.684Z,25.6
2023-03-28T16:50:26.903Z,24.8
2023-03-28T16:56:18.112Z,24
2023-03-28T17:01:39.601Z,23.4
2023-03-28T17:07:34.687Z,22.7
2023-03-28T17:13:26.424Z,22.2
2023-03-28T17:19:18.603Z,21.8
2023-03-28T17:24:39.285Z,21.5
2023-03-28T17:30:47.693Z,21.3
2023-03-28T17:36:41.587Z,21
2023-03-28T17:42:33.485Z,20.8
2023-03-28T17:48:26.398Z,20.7
2023-03-28T17:54:05.819Z,20.6
2023-03-28T17:59:58.076Z,20.4
2023-03-28T18:05:35.986Z,20.4
2023-03-28T18:11:30.548Z,20.3
2023-03-28T18:17:07.498Z,20.3
2023-03-28T18:22:43.687Z,20.2
2023-03-28T18:28:37.651Z,20.1
2023-03-28T18:34:18.878Z,20.1
2023-03-28T18:39:57.829Z,20.1
2023-03-28T18:45:34.913Z,20.1
2023-03-28T18:51:12.301Z,20.1
2023-03-28T18:56:49.469Z,20
2023-03-28T19:02:27.529Z,19.9
2023-03-28T19:08:06.102Z,19.9
2023-03-28T19:13:28.338Z,19.8
2023-03-28T19:19:08.103Z,19.7
2023-03-28T19:24:45.748Z,19.7
2023-03-28T19:30:24.159Z,19.6
2023-03-28T19:36:18.566Z,19.6
2023-03-28T19:41:57.960Z,19.4
2023-03-28T19:47:39.136Z,19.3
2023-03-28T19:53:31.919Z,19.2
2023-03-28T19:59:24.897Z,19.1
2023-03-28T20:05:02.216Z,19.1
2023-03-28T20:10:25.682Z,19.1
2023-03-28T20:16:04.076Z,19.1
2023-03-28T20:21:55.624Z,19.1
2023-03-28T20:27:32.173Z,19
2023-03-28T20:33:24.078Z,19
2023-03-28T20:39:15.960Z,19
2023-03-28T20:44:53.947Z,19
2023-03-28T20:50:46.228Z,18.9
2023-03-28T20:56:41.482Z,18.9
2023-03-28T21:02:33.876Z,18.9
2023-03-28T21:08:25.272Z,18.9
2023-03-28T21:14:16.673Z,19
2023-03-28T21:19:52.966Z,18.9
2023-03-28T21:25:44.246Z,18.9
2023-03-28T21:31:04.959Z,18.9
2023-03-28T21:36:27.318Z,18.9
2023-03-28T21:42:03.534Z,18.9
2023-03-28T21:47:23.454Z,18.9
2023-03-28T21:52:44.851Z,18.9
2023-03-28T21:58:36.323Z,18.9
2023-03-28T22:04:15.278Z,18.9
2023-03-28T22:09:29.486Z,19
2023-03-28T22:14:51.084Z,18.9
2023-03-28T22:20:11.611Z,18.9
2023-03-28T22:25:31.740Z,18.9
2023-03-28T22:30:52.306Z,18.9
2023-03-28T22:36:28.165Z,18.9
2023-03-28T22:42:03.685Z,18.9
2023-03-28T22:47:25.019Z,18.9
2023-03-28T22:53:01.900Z,18.9
2023-03-28T22:58:38.580Z,18.9
2023-03-28T23:04:15.113Z,18.9
2023-03-28T23:10:06.707Z,18.9
2023-03-28T23:15:42.817Z,18.9
2023-03-28T23:21:35.739Z,18.9
2023-03-28T23:27:11.730Z,18.9
2023-03-28T23:33:05.324Z,18.9
2023-03-28T23:38:57.404Z,18.9
2023-03-28T23:44:33.390Z,18.9
2023-03-28T23:49:54.207Z,18.9
2023-03-28T23:55:30.516Z,18.9
